Time;durP1;ratioP1;P1;durP2;ratioP2;P2;SDS_P1;SDS_P2;PMS_P1;PMS_P2;Temp;Humidity;BMP_temperature;BMP_pressure;BME280_temperature;BME280_humidity;BME280_pressure;Samples;Min_cycle;Max_cycle;Signal;HPM_P1;HPM_P2
2023/10/16 00:01:35;;;;;;;6.75;2.88;;;;;;;;;;5005117;28;20389;-74
2023/10/16 00:04:00;;;;;;;292.38;12.65;;;;;;;;;;5024148;28;20034;-74
2023/10/16 00:06:26;;;;;;;13.68;2.78;;;;;;;;;;5022886;28;20037;-74
2023/10/16 00:09:00;;;;;;;2.95;2.47;;;;;;;;;;5027820;28;20079;-75
2023/10/16 00:11:25;;;;;;;5.68;2.92;;;;;;;;;;5023038;28;20318;-74
2023/10/16 00:13:54;;;;;;;4.28;2.88;;;;;;;;;;5027327;28;20025;-74
2023/10/16 00:16:21;;;;;;;111.45;7.00;;;;;;;;;;5019890;28;20045;-74
2023/10/16 00:18:47;;;;;;;4.00;3.05;;;;;;;;;;5019468;28;20038;-75
2023/10/16 00:21:13;;;;;;;72.75;4.45;;;;;;;;;;5020507;28;20056;-74
2023/10/16 00:23:39;;;;;;;607.55;30.20;;;;;;;;;;5024599;28;20060;-74
2023/10/16 00:26:14;;;;;;;637.15;29.90;;;;;;;;;;5024013;28;20034;-75
2023/10/16 00:28:44;;;;;;;71.95;5.45;;;;;;;;;;5026046;28;20045;-75
2023/10/16 00:31:20;;;;;;;87.10;8.13;;;;;;;;;;5021394;28;20049;-76
2023/10/16 00:33:47;;;;;;;39.30;4.88;;;;;;;;;;5022356;28;20501;-74
2023/10/16 00:36:12;;;;;;;8.77;4.75;;;;;;;;;;5019614;28;20041;-74
2023/10/16 00:38:37;;;;;;;6.30;3.72;;;;;;;;;;5005779;28;20038;-74
2023/10/16 00:43:40;;;;;;;95.55;7.50;;;;;;;;;;5027847;28;20038;-74
2023/10/16 00:46:09;;;;;;;424.88;24.73;;;;;;;;;;4996639;28;20332;-74
2023/10/16 00:48:41;;;;;;;6.32;3.17;;;;;;;;;;4998062;28;20042;-74
2023/10/16 00:51:17;;;;;;;6.78;4.05;;;;;;;;;;5013855;28;20025;-75
2023/10/16 00:53:44;;;;;;;17.75;4.03;;;;;;;;;;5017560;28;20030;-74
2023/10/16 00:56:13;;;;;;;6.28;3.85;;;;;;;;;;5022137;28;20034;-74
2023/10/16 00:58:42;;;;;;;7.47;3.47;;;;;;;;;;5005280;28;20057;-75
2023/10/16 01:01:14;;;;;;;6.78;3.35;;;;;;;;;;5022597;28;20041;-74
2023/10/16 01:03:41;;;;;;;3.72;2.60;;;;;;;;;;5003674;28;20037;-75
2023/10/16 01:06:17;;;;;;;3.08;2.60;;;;;;;;;;5003111;28;20157;-74
2023/10/16 01:08:46;;;;;;;6.68;3.47;;;;;;;;;;5022900;28;20025;-74
2023/10/16 01:11:14;;;;;;;10.80;3.33;;;;;;;;;;5021916;28;20025;-74
2023/10/16 01:13:40;;;;;;;6.35;4.50;;;;;;;;;;5016967;28;20109;-75
2023/10/16 01:16:07;;;;;;;13.00;7.13;;;;;;;;;;4999778;28;20058;-74
2023/10/16 01:18:34;;;;;;;4.55;4.00;;;;;;;;;;5019419;28;20034;-74
2023/10/16 01:21:04;;;;;;;6.13;3.03;;;;;;;;;;5017194;28;20053;-75
2023/10/16 01:23:30;;;;;;;14.95;5.65;;;;;;;;;;5008308;28;20109;-74
2023/10/16 01:25:55;;;;;;;6.22;3.83;;;;;;;;;;5011573;28;20136;-75
2023/10/16 01:28:21;;;;;;;5.22;4.00;;;;;;;;;;5013972;28;20033;-75
2023/10/16 01:30:49;;;;;;;6.97;4.43;;;;;;;;;;5011895;28;20084;-74
2023/10/16 01:33:16;;;;;;;6.45;3.47;;;;;;;;;;5015047;28;20014;-74
2023/10/16 01:35:45;;;;;;;7.82;3.80;;;;;;;;;;5010352;28;20026;-74
2023/10/16 01:38:15;;;;;;;44.25;5.18;;;;;;;;;;5014515;28;20034;-74
2023/10/16 01:41:09;;;;;;;4.20;3.40;;;;;;;;;;5018223;28;20034;-76
2023/10/16 01:43:36;;;;;;;9.27;3.85;;;;;;;;;;5014915;28;20034;-75
2023/10/16 01:46:12;;;;;;;3.72;3.25;;;;;;;;;;5019032;28;20030;-75
2023/10/16 01:48:40;;;;;;;14.10;4.85;;;;;;;;;;5020759;28;20033;-74
2023/10/16 01:51:06;;;;;;;6.15;3.47;;;;;;;;;;5022965;28;20079;-75
2023/10/16 01:53:43;;;;;;;4.82;3.55;;;;;;;;;;5019974;28;20493;-74
2023/10/16 01:56:14;;;;;;;15.35;6.00;;;;;;;;;;5016034;28;20045;-74
2023/10/16 01:58:44;;;;;;;50.88;6.75;;;;;;;;;;5013277;28;20046;-74
2023/10/16 02:01:10;;;;;;;7.35;4.68;;;;;;;;;;5018320;28;20135;-74
2023/10/16 02:03:36;;;;;;;10.13;4.63;;;;;;;;;;5019332;28;20039;-75
2023/10/16 02:06:02;;;;;;;26.52;9.85;;;;;;;;;;5021393;28;20032;-74
2023/10/16 02:08:28;;;;;;;11.32;5.88;;;;;;;;;;5020078;28;20029;-74
2023/10/16 02:10:53;;;;;;;16.17;6.78;;;;;;;;;;5003591;28;20089;-75
2023/10/16 02:13:19;;;;;;;9.88;4.80;;;;;;;;;;5024274;28;20064;-74
2023/10/16 02:15:44;;;;;;;14.77;5.25;;;;;;;;;;5025206;28;20038;-74
2023/10/16 02:18:37;;;;;;;8.10;4.60;;;;;;;;;;5008973;28;20033;-74
2023/10/16 02:20:55;;;;;;;58.17;5.07;;;;;;;;;;5020070;28;20037;-74
2023/10/16 02:23:20;;;;;;;93.65;5.25;;;;;;;;;;5020148;28;20037;-74
2023/10/16 02:25:46;;;;;;;5.13;3.17;;;;;;;;;;5023140;28;20065;-74
2023/10/16 02:28:13;;;;;;;11.02;3.05;;;;;;;;;;5024632;28;20119;-74
2023/10/16 02:30:40;;;;;;;3.90;3.20;;;;;;;;;;5021517;28;20026;-73
2023/10/16 02:33:27;;;;;;;5.35;2.95;;;;;;;;;;5026378;28;20121;-75
2023/10/16 02:35:53;;;;;;;22.80;3.65;;;;;;;;;;5018986;28;20117;-76
2023/10/16 02:38:28;;;;;;;4.75;3.40;;;;;;;;;;5018062;28;20037;-75
2023/10/16 02:41:00;;;;;;;13.60;4.63;;;;;;;;;;5018624;28;20049;-74
2023/10/16 02:43:27;;;;;;;13.27;8.65;;;;;;;;;;5020021;28;20042;-74
2023/10/16 02:45:52;;;;;;;8.23;4.55;;;;;;;;;;5004890;28;20045;-74
2023/10/16 02:48:21;;;;;;;13.52;5.80;;;;;;;;;;5021287;28;20037;-74
2023/10/16 02:50:50;;;;;;;9.82;7.10;;;;;;;;;;5019989;28;20495;-74
2023/10/16 02:53:21;;;;;;;6.03;4.00;;;;;;;;;;5019770;28;20053;-75
2023/10/16 02:55:49;;;;;;;5.30;3.42;;;;;;;;;;5024161;28;20394;-74
2023/10/16 02:58:15;;;;;;;5.38;2.80;;;;;;;;;;5026459;28;20033;-73
2023/10/16 03:00:49;;;;;;;10.32;4.88;;;;;;;;;;5021561;28;20042;-75
2023/10/16 03:03:15;;;;;;;9.80;5.75;;;;;;;;;;5023778;28;20025;-74
2023/10/16 03:05:41;;;;;;;17.33;7.38;;;;;;;;;;5025031;28;20017;-74
2023/10/16 03:08:08;;;;;;;15.75;7.47;;;;;;;;;;5022675;28;20103;-74
2023/10/16 03:10:36;;;;;;;17.45;7.65;;;;;;;;;;5025489;28;20506;-74
2023/10/16 03:13:05;;;;;;;16.83;7.97;;;;;;;;;;5007449;28;20196;-74
2023/10/16 03:15:33;;;;;;;15.95;6.90;;;;;;;;;;5006250;28;20042;-74
2023/10/16 03:18:00;;;;;;;48.10;8.52;;;;;;;;;;5003930;28;20045;-74
2023/10/16 03:20:35;;;;;;;13.95;6.43;;;;;;;;;;5021164;28;20034;-74
2023/10/16 03:23:06;;;;;;;15.80;6.70;;;;;;;;;;5025464;28;20033;-75
2023/10/16 03:25:50;;;;;;;8.77;5.60;;;;;;;;;;5023216;28;20040;-74
2023/10/16 03:28:17;;;;;;;24.17;6.78;;;;;;;;;;5018814;28;20030;-74
2023/10/16 03:30:43;;;;;;;8.82;5.97;;;;;;;;;;5015718;28;20046;-74
2023/10/16 03:33:08;;;;;;;13.05;6.03;;;;;;;;;;5018264;28;20544;-75
2023/10/16 03:35:38;;;;;;;14.45;5.50;;;;;;;;;;5008228;28;20440;-73
2023/10/16 03:38:20;;;;;;;8.55;5.40;;;;;;;;;;5023882;28;20039;-74
2023/10/16 03:40:45;;;;;;;19.77;5.13;;;;;;;;;;5024878;28;20040;-75
2023/10/16 03:43:11;;;;;;;8.38;5.82;;;;;;;;;;5025278;28;20033;-75
2023/10/16 03:45:40;;;;;;;7.07;5.05;;;;;;;;;;5024561;28;20131;-74
2023/10/16 03:48:09;;;;;;;12.20;5.03;;;;;;;;;;5020060;28;20105;-74
2023/10/16 03:50:42;;;;;;;10.70;6.47;;;;;;;;;;5021312;28;20024;-75
2023/10/16 03:53:08;;;;;;;13.00;6.93;;;;;;;;;;5025226;28;20080;-74
2023/10/16 03:58:01;;;;;;;24.13;10.52;;;;;;;;;;5020113;28;20041;-78
2023/10/16 04:00:27;;;;;;;799.63;52.22;;;;;;;;;;5022943;28;20041;-78
2023/10/16 04:02:52;;;;;;;7.78;5.32;;;;;;;;;;5022603;28;20040;-78
2023/10/16 04:05:31;;;;;;;11.75;5.45;;;;;;;;;;5021506;28;20041;-78
2023/10/16 04:07:56;;;;;;;12.27;6.57;;;;;;;;;;5014607;28;20460;-79
2023/10/16 04:10:28;;;;;;;28.38;5.53;;;;;;;;;;5014631;28;20054;-79
2023/10/16 04:12:54;;;;;;;71.97;6.10;;;;;;;;;;5020299;28;20130;-78
2023/10/16 04:15:34;;;;;;;37.40;5.40;;;;;;;;;;5012828;28;20107;-77
2023/10/16 04:18:04;;;;;;;69.00;6.50;;;;;;;;;;5008009;28;20036;-77
2023/10/16 04:20:43;;;;;;;25.25;4.85;;;;;;;;;;5015477;28;20132;-76
2023/10/16 04:23:29;;;;;;;350.30;17.42;;;;;;;;;;5028382;28;20069;-78
2023/10/16 04:29:20;;;;;;;113.50;7.10;;;;;;;;;;5026688;28;20069;-78
2023/10/16 04:34:31;;;;;;;148.80;6.63;;;;;;;;;;5021264;28;20044;-78
2023/10/16 04:53:07;;;;;;;388.63;18.60;;;;;;;;;;5029056;28;20103;-80
2023/10/16 05:06:14;;;;;;;109.88;9.15;;;;;;;;;;5017181;28;20551;-78
2023/10/16 05:22:03;;;;;;;45.60;5.70;;;;;;;;;;5024885;28;20113;-78
2023/10/16 06:14:15;;;;;;;433.55;25.50;;;;;;;;;;5015177;28;20520;-77
2023/10/16 06:16:42;;;;;;;16.20;3.75;;;;;;;;;;5013637;28;20113;-78
2023/10/16 06:19:21;;;;;;;470.40;22.80;;;;;;;;;;5028035;28;20033;-78
2023/10/16 06:21:48;;;;;;;71.20;5.20;;;;;;;;;;5035582;28;20033;-78
2023/10/16 06:24:25;;;;;;;110.25;6.18;;;;;;;;;;5039248;28;20378;-78
2023/10/16 06:27:01;;;;;;;176.00;7.07;;;;;;;;;;5037996;28;20620;-78
2023/10/16 06:29:35;;;;;;;157.65;8.38;;;;;;;;;;5037409;28;20037;-78
2023/10/16 06:32:07;;;;;;;115.43;7.50;;;;;;;;;;4994954;28;20038;-80
2023/10/16 06:34:33;;;;;;;166.50;10.05;;;;;;;;;;5024774;28;20045;-80
2023/10/16 06:37:05;;;;;;;206.98;10.20;;;;;;;;;;5019581;28;20038;-79
2023/10/16 06:39:35;;;;;;;604.13;37.65;;;;;;;;;;5022549;28;20057;-79
2023/10/16 06:42:04;;;;;;;65.35;7.00;;;;;;;;;;5018162;28;20036;-78
2023/10/16 06:44:31;;;;;;;418.73;20.10;;;;;;;;;;5013330;28;20478;-78
2023/10/16 06:46:58;;;;;;;43.58;4.78;;;;;;;;;;5026558;28;20057;-79
2023/10/16 06:49:35;;;;;;;56.42;4.72;;;;;;;;;;5024031;28;20033;-79
2023/10/16 06:52:04;;;;;;;35.42;3.75;;;;;;;;;;5013108;28;20045;-81
2023/10/16 06:54:30;;;;;;;45.17;4.25;;;;;;;;;;5028538;28;20064;-80
2023/10/16 06:56:55;;;;;;;34.83;3.35;;;;;;;;;;5033792;28;20061;-79
2023/10/16 06:59:21;;;;;;;58.40;4.18;;;;;;;;;;5033171;28;20055;-77
2023/10/16 07:01:47;;;;;;;34.50;3.78;;;;;;;;;;5034271;28;20569;-77
2023/10/16 07:04:14;;;;;;;55.42;4.47;;;;;;;;;;5033817;28;20057;-81
2023/10/16 07:06:42;;;;;;;23.50;4.25;;;;;;;;;;5037664;28;20100;-81
2023/10/16 07:09:08;;;;;;;122.95;7.60;;;;;;;;;;5040348;28;20033;-79
2023/10/16 07:11:34;;;;;;;17.13;3.60;;;;;;;;;;5040903;28;20025;-81
2023/10/16 07:13:59;;;;;;;10.93;3.78;;;;;;;;;;5038925;28;20033;-81
2023/10/16 07:16:25;;;;;;;659.53;28.30;;;;;;;;;;5039000;28;20036;-81
2023/10/16 07:18:54;;;;;;;1099.35;55.08;;;;;;;;;;5032540;28;20050;-80
2023/10/16 07:21:20;;;;;;;5.40;4.03;;;;;;;;;;5019579;28;20029;-80
2023/10/16 07:23:46;;;;;;;6.10;4.25;;;;;;;;;;5036799;28;20056;-80
2023/10/16 07:26:16;;;;;;;5.43;3.90;;;;;;;;;;5037432;28;20033;-80
2023/10/16 07:28:48;;;;;;;4.13;3.72;;;;;;;;;;5035391;28;20033;-80
2023/10/16 07:31:14;;;;;;;205.15;13.13;;;;;;;;;;5029767;28;20045;-78
2023/10/16 07:33:41;;;;;;;4.32;3.55;;;;;;;;;;5027989;28;20080;-80
2023/10/16 07:36:11;;;;;;;7.35;2.53;;;;;;;;;;5013394;28;20069;-79
2023/10/16 07:38:38;;;;;;;3.63;2.13;;;;;;;;;;5025335;28;20033;-79
2023/10/16 07:41:03;;;;;;;2.55;2.35;;;;;;;;;;5035395;28;20045;-78
2023/10/16 07:43:33;;;;;;;2.70;2.50;;;;;;;;;;5034383;28;20037;-78
2023/10/16 07:46:17;;;;;;;2.00;1.90;;;;;;;;;;5032163;28;20121;-78
2023/10/16 07:48:46;;;;;;;;;;;;;;;;;;5036989;28;20030;-78
2023/10/16 07:51:14;;;;;;;2.33;2.20;;;;;;;;;;5036360;28;19963;-81
2023/10/16 07:53:40;;;;;;;3.20;2.40;;;;;;;;;;5035514;28;20100;-80
2023/10/16 07:56:19;;;;;;;5.88;2.78;;;;;;;;;;5037029;28;20457;-79
2023/10/16 07:58:54;;;;;;;2.42;2.22;;;;;;;;;;5036143;28;20041;-79
2023/10/16 08:01:32;;;;;;;2.45;2.25;;;;;;;;;;5034862;28;20072;-80
2023/10/16 08:03:58;;;;;;;2.22;2.10;;;;;;;;;;5034701;28;20567;-80
2023/10/16 08:06:24;;;;;;;2.10;1.95;;;;;;;;;;5036013;28;20025;-78
2023/10/16 08:09:19;;;;;;;4.55;2.30;;;;;;;;;;5038127;28;20103;-79
2023/10/16 08:11:36;;;;;;;3.03;1.75;;;;;;;;;;5035716;28;20095;-79
2023/10/16 08:14:08;;;;;;;3.97;2.22;;;;;;;;;;5020180;28;20058;-79
2023/10/16 08:16:34;;;;;;;2.83;1.80;;;;;;;;;;5017305;28;20030;-78
2023/10/16 08:18:59;;;;;;;2.80;2.03;;;;;;;;;;5015260;28;20041;-78
2023/10/16 08:21:24;;;;;;;1.77;1.67;;;;;;;;;;5020871;28;20033;-78
2023/10/16 08:23:54;;;;;;;5.30;2.33;;;;;;;;;;5022254;28;20098;-79
2023/10/16 08:26:30;;;;;;;2.25;2.05;;;;;;;;;;5017786;28;20485;-78
2023/10/16 08:29:17;;;;;;;2.03;1.88;;;;;;;;;;5017065;28;20037;-80
2023/10/16 08:31:45;;;;;;;2.05;1.95;;;;;;;;;;5014084;28;20080;-80
2023/10/16 08:34:13;;;;;;;2.20;2.00;;;;;;;;;;5012817;28;20045;-80
2023/10/16 08:36:39;;;;;;;4.13;2.30;;;;;;;;;;5012243;28;20482;-79
2023/10/16 08:39:15;;;;;;;3.15;2.42;;;;;;;;;;5012813;28;20100;-79
2023/10/16 08:41:45;;;;;;;2.90;1.75;;;;;;;;;;5020062;28;20018;-77
2023/10/16 08:44:24;;;;;;;4.05;2.15;;;;;;;;;;5020549;28;20040;-79
2023/10/16 08:49:25;;;;;;;3.38;2.35;;;;;;;;;;5026870;28;20038;-77
2023/10/16 08:51:52;;;;;;;5.38;2.38;;;;;;;;;;5023104;28;20064;-78
2023/10/16 08:57:03;;;;;;;2.28;1.92;;;;;;;;;;5026507;28;20025;-80
2023/10/16 08:59:30;;;;;;;4.63;2.25;;;;;;;;;;5019568;28;20109;-79
2023/10/16 09:01:58;;;;;;;4.65;2.72;;;;;;;;;;5024985;28;20625;-80
2023/10/16 09:04:26;;;;;;;3.15;1.70;;;;;;;;;;5023802;28;20041;-81
2023/10/16 09:06:52;;;;;;;3.00;1.65;;;;;;;;;;5019297;28;20138;-79
2023/10/16 09:09:17;;;;;;;2.70;1.90;;;;;;;;;;5019213;28;20057;-79
2023/10/16 09:11:45;;;;;;;2.05;1.92;;;;;;;;;;5016035;28;20486;-80
2023/10/16 09:14:17;;;;;;;2.65;2.17;;;;;;;;;;5012687;28;20048;-78
2023/10/16 09:16:47;;;;;;;2.85;2.60;;;;;;;;;;5011334;28;20095;-78
2023/10/16 09:19:14;;;;;;;1.77;1.48;;;;;;;;;;5030675;28;20033;-78
2023/10/16 09:21:44;;;;;;;2.58;1.73;;;;;;;;;;5035209;28;20087;-78
2023/10/16 09:24:13;;;;;;;2.38;2.20;;;;;;;;;;5032976;28;20030;-79
2023/10/16 09:26:44;;;;;;;6.43;2.67;;;;;;;;;;5024331;28;20484;-80
2023/10/16 09:29:14;;;;;;;1.65;1.55;;;;;;;;;;5026672;28;20186;-80
2023/10/16 09:31:47;;;;;;;2.40;2.20;;;;;;;;;;5024877;28;20068;-79
2023/10/16 09:34:19;;;;;;;2.38;1.98;;;;;;;;;;5026638;28;20064;-79
2023/10/16 09:39:36;;;;;;;3.45;2.45;;;;;;;;;;5024806;28;20088;-80
2023/10/16 09:42:12;;;;;;;1.80;1.70;;;;;;;;;;5028791;28;20030;-78
2023/10/16 09:44:40;;;;;;;2.17;2.00;;;;;;;;;;5026277;28;20536;-80
2023/10/16 09:47:27;;;;;;;5.45;1.67;;;;;;;;;;5027624;28;20698;-78
2023/10/16 09:50:01;;;;;;;4.10;2.22;;;;;;;;;;5031927;28;20434;-79
2023/10/16 09:52:33;;;;;;;4.38;2.22;;;;;;;;;;5032662;28;20061;-80
2023/10/16 09:54:59;;;;;;;2.28;1.60;;;;;;;;;;5033233;28;20234;-79
2023/10/16 09:57:29;;;;;;;1.27;1.20;;;;;;;;;;5047957;22;20510;-85
2023/10/16 10:02:59;;;;;;;4.00;2.13;;;;;;;;;;4998646;28;20104;-84
2023/10/16 10:05:41;;;;;;;2.30;1.63;;;;;;;;;;5027240;28;20037;-84
2023/10/16 10:08:25;;;;;;;2.72;1.92;;;;;;;;;;5030338;28;20033;-84
2023/10/16 10:11:16;;;;;;;;;;;;;;;;;;5028024;28;20413;-84
2023/10/16 10:13:55;;;;;;;2.63;1.98;;;;;;;;;;5030171;28;19999;-85
2023/10/16 10:16:22;;;;;;;7.15;1.88;;;;;;;;;;5027789;28;20041;-85
2023/10/16 10:18:56;;;;;;;1.95;1.83;;;;;;;;;;5028639;28;20108;-85
2023/10/16 10:21:29;;;;;;;1.17;1.17;;;;;;;;;;5030434;28;20060;-84
2023/10/16 10:24:03;;;;;;;2.67;1.98;;;;;;;;;;5033955;28;20075;-85
2023/10/16 10:26:32;;;;;;;3.25;1.90;;;;;;;;;;5028375;28;20045;-84
2023/10/16 10:29:09;;;;;;;2.22;2.00;;;;;;;;;;5024594;28;20438;-84
2023/10/16 10:31:36;;;;;;;1.35;1.25;;;;;;;;;;5030491;28;20057;-84
2023/10/16 10:34:23;;;;;;;2.55;1.90;;;;;;;;;;5033835;28;20467;-84
2023/10/16 10:36:49;;;;;;;3.03;1.90;;;;;;;;;;5024548;28;20029;-87
2023/10/16 10:39:20;;;;;;;1.73;1.55;;;;;;;;;;5026004;28;20099;-85
2023/10/16 10:41:47;;;;;;;3.55;1.98;;;;;;;;;;5026370;28;20032;-85
2023/10/16 10:44:14;;;;;;;2.50;1.60;;;;;;;;;;5026221;28;20087;-84
2023/10/16 10:46:44;;;;;;;1.73;1.63;;;;;;;;;;5021114;28;20045;-85
2023/10/16 10:49:15;;;;;;;3.10;2.08;;;;;;;;;;5025084;28;20355;-84
2023/10/16 10:51:44;;;;;;;2.05;1.95;;;;;;;;;;5021596;28;20072;-85
2023/10/16 10:54:13;;;;;;;2.47;1.90;;;;;;;;;;5015887;28;20026;-86
2023/10/16 10:56:47;;;;;;;1.83;1.73;;;;;;;;;;5026260;28;20392;-83
2023/10/16 10:59:13;;;;;;;;;;;;;;;;;;5027233;28;20065;-85
2023/10/16 11:02:09;;;;;;;3.53;2.05;;;;;;;;;;5021817;28;19913;-85
2023/10/16 11:04:28;;;;;;;1.98;1.80;;;;;;;;;;5026453;28;20576;-85
2023/10/16 11:06:57;;;;;;;6.55;1.67;;;;;;;;;;5019746;28;20056;-86
2023/10/16 11:09:26;;;;;;;2.17;1.92;;;;;;;;;;5023529;28;20037;-85
2023/10/16 11:11:52;;;;;;;2.30;1.20;;;;;;;;;;5030507;28;20021;-86
2023/10/16 11:14:34;;;;;;;3.30;1.90;;;;;;;;;;5031870;28;20045;-85
2023/10/16 11:16:59;;;;;;;1.67;1.30;;;;;;;;;;5027324;28;20041;-84
2023/10/16 11:19:33;;;;;;;3.33;2.03;;;;;;;;;;5024866;28;20384;-87
2023/10/16 11:22:00;;;;;;;2.35;1.75;;;;;;;;;;5029536;28;20052;-85
2023/10/16 11:24:25;;;;;;;1.70;1.50;;;;;;;;;;5029640;28;20029;-85
2023/10/16 11:26:59;;;;;;;1.55;1.45;;;;;;;;;;5027837;28;20021;-86
2023/10/16 11:29:33;;;;;;;2.30;1.70;;;;;;;;;;5027820;28;20037;-85
2023/10/16 11:32:06;;;;;;;;;;;;;;;;;;5024694;28;20026;-85
2023/10/16 11:34:40;;;;;;;1.58;1.20;;;;;;;;;;5026945;28;19968;-86
2023/10/16 11:37:12;;;;;;;1.13;0.90;;;;;;;;;;5040757;28;20032;-93
2023/10/16 11:39:38;;;;;;;3.45;1.08;;;;;;;;;;5053596;28;20029;-88
2023/10/16 11:42:03;;;;;;;3.05;1.40;;;;;;;;;;5048412;28;20034;-88
2023/10/16 11:44:32;;;;;;;2.13;1.38;;;;;;;;;;5040228;28;20049;-85
2023/10/16 11:47:00;;;;;;;3.42;1.70;;;;;;;;;;5030675;28;20033;-85
2023/10/16 11:49:38;;;;;;;1.20;1.10;;;;;;;;;;5023807;28;20022;-85
2023/10/16 11:52:08;;;;;;;1.35;1.27;;;;;;;;;;5028397;28;20469;-85
2023/10/16 11:54:36;;;;;;;3.63;1.58;;;;;;;;;;5029460;28;20041;-85
2023/10/16 11:57:01;;;;;;;1.50;1.40;;;;;;;;;;5030093;28;20083;-84
2023/10/16 11:59:28;;;;;;;3.10;1.40;;;;;;;;;;5030519;28;20030;-86
2023/10/16 12:01:59;;;;;;;2.00;1.52;;;;;;;;;;5026367;28;20432;-87
2023/10/16 12:04:26;;;;;;;1.33;1.17;;;;;;;;;;5028308;28;20025;-86
2023/10/16 12:06:52;;;;;;;0.95;0.90;;;;;;;;;;5026523;28;20106;-87
2023/10/16 12:09:20;;;;;;;1.30;1.20;;;;;;;;;;5025321;28;20042;-85
2023/10/16 12:11:50;;;;;;;1.60;1.05;;;;;;;;;;5023591;28;20021;-86
2023/10/16 12:14:18;;;;;;;1.52;1.35;;;;;;;;;;5018443;28;20512;-86
2023/10/16 12:16:46;;;;;;;2.92;1.20;;;;;;;;;;5025077;28;20052;-87
2023/10/16 12:19:16;;;;;;;1.70;1.42;;;;;;;;;;5024300;28;20049;-86
2023/10/16 12:21:43;;;;;;;3.70;1.10;;;;;;;;;;5028216;28;20069;-85
2023/10/16 12:24:12;;;;;;;0.82;0.75;;;;;;;;;;5023277;28;20026;-86
2023/10/16 12:26:40;;;;;;;1.27;1.13;;;;;;;;;;5026084;28;20037;-84
2023/10/16 12:29:06;;;;;;;2.05;1.23;;;;;;;;;;5027299;28;20519;-86
2023/10/16 12:31:32;;;;;;;2.72;1.10;;;;;;;;;;5022187;28;20038;-84
2023/10/16 12:33:57;;;;;;;3.47;1.55;;;;;;;;;;5028410;28;20727;-86
2023/10/16 12:36:23;;;;;;;1.45;1.10;;;;;;;;;;5023330;28;20106;-86
2023/10/16 12:38:50;;;;;;;3.70;1.48;;;;;;;;;;5023013;28;20029;-86
2023/10/16 12:41:15;;;;;;;2.88;1.63;;;;;;;;;;5023054;28;20518;-85
2023/10/16 12:43:43;;;;;;;2.22;1.20;;;;;;;;;;5021628;28;20034;-84
2023/10/16 12:46:08;;;;;;;2.85;1.40;;;;;;;;;;5019704;28;20057;-85
2023/10/16 12:48:33;;;;;;;3.75;1.48;;;;;;;;;;5023613;28;20025;-85
2023/10/16 12:51:07;;;;;;;1.45;1.35;;;;;;;;;;5022163;28;20416;-85
2023/10/16 12:53:32;;;;;;;6.27;1.47;;;;;;;;;;5023912;28;20718;-84
2023/10/16 12:55:58;;;;;;;1.52;1.05;;;;;;;;;;5027796;28;20116;-87
2023/10/16 12:58:27;;;;;;;2.40;1.35;;;;;;;;;;5021048;28;20432;-85
2023/10/16 13:00:52;;;;;;;3.05;1.90;;;;;;;;;;5015729;28;20117;-85
2023/10/16 13:03:20;;;;;;;2.15;1.10;;;;;;;;;;5023511;28;20049;-85
2023/10/16 13:05:46;;;;;;;2.15;1.30;;;;;;;;;;5027549;28;20049;-84
2023/10/16 13:08:12;;;;;;;2.20;1.55;;;;;;;;;;5029209;28;20488;-84
2023/10/16 13:10:37;;;;;;;3.90;1.80;;;;;;;;;;5019651;28;20030;-84
2023/10/16 13:13:03;;;;;;;2.10;1.20;;;;;;;;;;5027137;28;20060;-86
2023/10/16 13:15:29;;;;;;;1.70;1.30;;;;;;;;;;5022918;28;20053;-84
2023/10/16 13:17:56;;;;;;;2.95;1.77;;;;;;;;;;5022130;28;20354;-84
2023/10/16 13:20:27;;;;;;;2.08;1.60;;;;;;;;;;5017707;28;20033;-85
2023/10/16 13:22:53;;;;;;;7.75;1.65;;;;;;;;;;5020698;28;20559;-84
2023/10/16 13:25:23;;;;;;;3.17;1.23;;;;;;;;;;5019873;28;20042;-85
2023/10/16 13:27:49;;;;;;;2.10;1.73;;;;;;;;;;5026189;28;20030;-84
2023/10/16 13:30:18;;;;;;;0.85;0.85;;;;;;;;;;5001452;28;20046;-84
2023/10/16 13:32:47;;;;;;;1.65;1.30;;;;;;;;;;5020958;28;20048;-87
2023/10/16 13:35:13;;;;;;;1.88;1.33;;;;;;;;;;5020704;28;20037;-84
2023/10/16 13:37:42;;;;;;;2.00;1.33;;;;;;;;;;5023396;28;20121;-86
2023/10/16 13:40:15;;;;;;;1.77;1.50;;;;;;;;;;5028835;28;20504;-84
2023/10/16 13:42:41;;;;;;;3.33;1.60;;;;;;;;;;5025977;28;20423;-88
2023/10/16 13:45:12;;;;;;;3.45;1.17;;;;;;;;;;5018809;28;20117;-87
2023/10/16 13:47:42;;;;;;;1.45;1.35;;;;;;;;;;5016426;28;20390;-89
2023/10/16 13:50:18;;;;;;;1.60;1.50;;;;;;;;;;5006434;28;20081;-88
2023/10/16 13:52:46;;;;;;;1.52;1.42;;;;;;;;;;5018784;28;20049;-88
2023/10/16 13:55:14;;;;;;;2.13;1.42;;;;;;;;;;5013871;28;20037;-89
2023/10/16 13:57:44;;;;;;;1.42;1.13;;;;;;;;;;5003885;28;20030;-87
2023/10/16 14:00:31;;;;;;;2.25;1.38;;;;;;;;;;5028682;28;20083;-88
2023/10/16 14:03:10;;;;;;;2.70;1.35;;;;;;;;;;5031839;28;20037;-89
2023/10/16 14:05:52;;;;;;;2.20;1.50;;;;;;;;;;5021054;28;20045;-89
2023/10/16 14:08:26;;;;;;;1.95;1.23;;;;;;;;;;5025679;28;20122;-89
2023/10/16 14:10:52;;;;;;;2.65;1.50;;;;;;;;;;5025502;28;20029;-89
2023/10/16 14:13:26;;;;;;;1.83;1.30;;;;;;;;;;5036600;28;20136;-86
2023/10/16 14:15:57;;;;;;;3.42;1.40;;;;;;;;;;5043519;28;20014;-88
2023/10/16 14:18:26;;;;;;;1.92;1.58;;;;;;;;;;5023579;28;20031;-87
2023/10/16 14:20:51;;;;;;;1.50;1.40;;;;;;;;;;5024115;28;20022;-88
2023/10/16 14:23:19;;;;;;;1.40;1.30;;;;;;;;;;5017160;28;20049;-88
2023/10/16 14:25:57;;;;;;;3.45;1.55;;;;;;;;;;5030229;28;20230;-88
2023/10/16 14:28:40;;;;;;;1.83;1.60;;;;;;;;;;5018579;28;20053;-87
2023/10/16 14:31:17;;;;;;;4.13;1.58;;;;;;;;;;5024557;28;20046;-87
2023/10/16 14:33:43;;;;;;;3.30;1.65;;;;;;;;;;5021037;28;20025;-88
2023/10/16 14:36:09;;;;;;;1.73;1.58;;;;;;;;;;5027719;28;20080;-89
2023/10/16 14:38:37;;;;;;;4.65;1.70;;;;;;;;;;5024554;28;20026;-88
2023/10/16 14:41:08;;;;;;;3.47;1.88;;;;;;;;;;5025160;28;20045;-88
2023/10/16 14:43:35;;;;;;;1.55;1.38;;;;;;;;;;5023006;28;20041;-88
2023/10/16 14:46:10;;;;;;;1.58;1.38;;;;;;;;;;5016791;28;20041;-88
2023/10/16 14:48:45;;;;;;;1.83;1.25;;;;;;;;;;5019588;28;20084;-88
2023/10/16 14:51:15;;;;;;;4.53;1.67;;;;;;;;;;5027547;28;20083;-88
2023/10/16 14:53:45;;;;;;;2.85;1.70;;;;;;;;;;5033339;28;20038;-88
2023/10/16 14:56:16;;;;;;;3.83;1.88;;;;;;;;;;5025265;28;20038;-88
2023/10/16 14:58:45;;;;;;;2.78;1.70;;;;;;;;;;5007925;28;20042;-87
2023/10/16 15:01:19;;;;;;;2.22;1.73;;;;;;;;;;5021548;28;20518;-87
2023/10/16 15:03:47;;;;;;;1.63;1.33;;;;;;;;;;5036731;28;20034;-88
2023/10/16 15:06:13;;;;;;;1.30;1.20;;;;;;;;;;5033881;28;20112;-88
2023/10/16 15:08:39;;;;;;;2.20;1.20;;;;;;;;;;5022892;28;20156;-87
2023/10/16 15:11:05;;;;;;;1.58;1.20;;;;;;;;;;5017524;28;20396;-88
2023/10/16 15:13:31;;;;;;;4.47;1.40;;;;;;;;;;5023531;28;20030;-89
2023/10/16 15:16:04;;;;;;;4.93;1.67;;;;;;;;;;5026479;28;20037;-89
2023/10/16 15:21:40;;;;;;;1.48;1.33;;;;;;;;;;5002486;28;20537;-87
2023/10/16 15:24:08;;;;;;;2.22;1.48;;;;;;;;;;5023099;28;20112;-87
2023/10/16 15:26:34;;;;;;;3.28;1.48;;;;;;;;;;5025573;28;20029;-88
2023/10/16 15:29:00;;;;;;;3.33;1.60;;;;;;;;;;5021456;28;20034;-88
2023/10/16 15:31:29;;;;;;;3.25;1.50;;;;;;;;;;5020615;28;20034;-89
2023/10/16 15:33:55;;;;;;;3.90;1.70;;;;;;;;;;5030436;28;20097;-89
2023/10/16 15:36:21;;;;;;;2.97;1.77;;;;;;;;;;5024765;28;20053;-86
2023/10/16 15:38:47;;;;;;;4.15;3.03;;;;;;;;;;5017550;28;20022;-87
2023/10/16 15:41:15;;;;;;;4.93;2.25;;;;;;;;;;5033116;28;20034;-87
2023/10/16 15:43:42;;;;;;;2.20;1.48;;;;;;;;;;5013614;28;20124;-87
2023/10/16 15:46:27;;;;;;;1.83;1.48;;;;;;;;;;5021025;28;20118;-87
2023/10/16 15:48:54;;;;;;;;;;;;;;;;;;5026474;28;20069;-87
2023/10/16 15:51:20;;;;;;;2.15;1.40;;;;;;;;;;5016755;28;19975;-88
2023/10/16 15:53:50;;;;;;;2.75;1.92;;;;;;;;;;5030006;28;20491;-87
2023/10/16 15:56:18;;;;;;;4.25;1.98;;;;;;;;;;5026284;28;20042;-87
2023/10/16 15:58:44;;;;;;;1.80;1.55;;;;;;;;;;5022201;28;20057;-87
2023/10/16 16:01:10;;;;;;;2.88;1.55;;;;;;;;;;5015747;28;20068;-87
2023/10/16 16:03:37;;;;;;;5.55;2.00;;;;;;;;;;5028500;28;20033;-88
2023/10/16 16:06:02;;;;;;;7.38;2.22;;;;;;;;;;5025186;28;20175;-86
2023/10/16 16:08:28;;;;;;;2.15;1.40;;;;;;;;;;5024447;28;20119;-86
2023/10/16 16:10:53;;;;;;;5.03;1.85;;;;;;;;;;5028358;28;20038;-85
2023/10/16 16:13:20;;;;;;;1.60;1.50;;;;;;;;;;5025083;28;20057;-85
2023/10/16 16:15:45;;;;;;;6.55;2.10;;;;;;;;;;5022516;28;20400;-84
2023/10/16 16:18:11;;;;;;;2.47;1.70;;;;;;;;;;5023458;28;20033;-85
2023/10/16 16:20:37;;;;;;;4.03;1.90;;;;;;;;;;5024692;28;20087;-85
2023/10/16 16:23:03;;;;;;;3.03;1.80;;;;;;;;;;5028067;28;20129;-85
2023/10/16 16:25:29;;;;;;;2.85;1.80;;;;;;;;;;5026733;28;20492;-88
2023/10/16 16:27:55;;;;;;;2.72;2.00;;;;;;;;;;5025371;28;20047;-87
2023/10/16 16:30:20;;;;;;;3.55;2.10;;;;;;;;;;5022638;28;20022;-87
2023/10/16 16:32:47;;;;;;;5.60;2.50;;;;;;;;;;5023341;28;20022;-85
2023/10/16 16:35:16;;;;;;;5.25;2.60;;;;;;;;;;5026961;28;20759;-86
2023/10/16 16:37:55;;;;;;;6.35;2.65;;;;;;;;;;5026966;28;20042;-87
2023/10/16 16:40:22;;;;;;;6.32;2.65;;;;;;;;;;5020394;28;20536;-86
2023/10/16 16:42:48;;;;;;;3.95;2.28;;;;;;;;;;5017454;28;20038;-86
2023/10/16 16:45:18;;;;;;;2.88;2.50;;;;;;;;;;5017104;28;20036;-87
2023/10/16 16:47:43;;;;;;;17.65;2.92;;;;;;;;;;5027278;28;20079;-86
2023/10/16 16:50:17;;;;;;;4.90;2.83;;;;;;;;;;5031122;28;20026;-86